Terminal Aerodrome Forecast
Issued by NWS

Home | Current Version | Previous Version | Graphics & Text | Print | Product List | Glossary On
Versions: 1 2 3 4 5 6 7 8 9 10 11 12 13
000
FTUS43 KBIS 020529
TAFMOT
TAF
KMOT 020529Z 0206/0306 20005KT P6SM SCT150
     FM021200 23012KT P6SM BKN120
     FM021700 26010KT P6SM VCTS BKN120CB
     FM022000 27015G25KT P6SM SCT120 SCT200
     FM030100 28009KT P6SM SCT090 SCT180=

USA.gov is the U.S. government's official web portal to all federal, state and local government web resources and services.